createdAt,value
2022-10-31T00:01:39.113Z,11.50
2022-10-31T00:05:51.454Z,11.60
2022-10-31T00:09:56.408Z,10.23
2022-10-31T00:14:00.052Z,11.60
2022-10-31T00:18:04.024Z,11.63
2022-10-31T00:22:07.513Z,14.50
2022-10-31T00:26:12.877Z,12.00
2022-10-31T00:30:16.742Z,10.67
2022-10-31T00:34:20.404Z,16.87
2022-10-31T00:38:24.181Z,11.60
2022-10-31T00:42:29.114Z,9.70
2022-10-31T00:46:32.540Z,14.73
2022-10-31T00:50:36.092Z,12.67
2022-10-31T00:54:39.735Z,9.50
2022-10-31T00:58:44.903Z,12.80
2022-10-31T01:02:48.767Z,15.40
2022-10-31T01:06:52.549Z,11.83
2022-10-31T01:11:04.146Z,10.90
2022-10-31T01:15:17.587Z,10.20
2022-10-31T01:19:21.323Z,9.70
2022-10-31T01:23:25.746Z,15.30
2022-10-31T01:27:29.690Z,7.23
2022-10-31T01:31:36.932Z,12.00
2022-10-31T01:35:40.582Z,9.93
2022-10-31T01:39:55.805Z,10.27
2022-10-31T01:44:01.094Z,10.00
2022-10-31T01:48:06.273Z,12.47
2022-10-31T01:52:15.043Z,10.47
2022-10-31T01:56:20.172Z,13.00
2022-10-31T02:00:24.879Z,11.03
2022-10-31T02:04:32.075Z,12.13
2022-10-31T02:08:38.965Z,8.37
2022-10-31T02:12:43.894Z,9.70
2022-10-31T02:16:47.631Z,11.70
2022-10-31T02:21:00.162Z,8.27
2022-10-31T02:25:25.554Z,12.27
2022-10-31T02:30:12.669Z,7.53
2022-10-31T02:34:24.312Z,20.17
2022-10-31T02:38:40.139Z,9.43
2022-10-31T02:42:52.513Z,12.70
2022-10-31T02:47:01.715Z,11.60
2022-10-31T02:51:07.567Z,9.70
2022-10-31T02:55:49.569Z,8.33
2022-10-31T02:59:56.483Z,10.40
2022-10-31T03:04:13.239Z,8.53
2022-10-31T03:08:25.962Z,9.83
2022-10-31T03:12:32.747Z,11.23
2022-10-31T03:16:47.966Z,11.83
2022-10-31T03:20:58.903Z,9.30
2022-10-31T03:25:06.885Z,13.37
2022-10-31T03:29:13.672Z,13.17
2022-10-31T03:33:20.232Z,14.03
2022-10-31T03:37:24.878Z,14.03
2022-10-31T03:41:34.588Z,11.00
2022-10-31T03:45:43.417Z,14.73
2022-10-31T03:49:47.183Z,11.03
2022-10-31T03:53:58.851Z,21.07
2022-10-31T03:58:09.266Z,9.33
2022-10-31T04:02:19.359Z,10.10
2022-10-31T04:06:24.059Z,8.80
2022-10-31T04:10:32.955Z,8.70
2022-10-31T04:14:42.107Z,13.73
2022-10-31T04:18:45.970Z,12.07
2022-10-31T04:22:49.475Z,9.80
2022-10-31T04:26:52.931Z,12.40
2022-10-31T04:30:57.882Z,8.13
2022-10-31T04:35:01.695Z,13.40
2022-10-31T04:39:05.320Z,11.43
2022-10-31T04:43:08.996Z,10.53
2022-10-31T04:47:14.322Z,12.70
2022-10-31T04:51:17.933Z,6.90
2022-10-31T04:55:22.609Z,8.80
2022-10-31T04:59:26.319Z,11.30
2022-10-31T05:03:31.435Z,13.20
2022-10-31T05:07:35.135Z,8.40
2022-10-31T05:11:38.695Z,10.93
2022-10-31T05:15:42.250Z,10.30
2022-10-31T05:19:47.162Z,12.00
2022-10-31T05:23:50.716Z,13.37
2022-10-31T05:27:55.159Z,13.60
2022-10-31T05:31:58.718Z,9.50
2022-10-31T05:36:03.828Z,7.87
2022-10-31T05:40:10.370Z,11.70
2022-10-31T05:44:16.128Z,15.13
2022-10-31T05:48:19.876Z,8.90
2022-10-31T05:52:25.053Z,18.47
2022-10-31T05:56:28.931Z,8.27
2022-10-31T06:00:33.257Z,13.53
2022-10-31T06:04:39.381Z,14.77
2022-10-31T06:08:44.979Z,11.10
2022-10-31T06:12:48.769Z,9.50
2022-10-31T06:16:52.286Z,14.20
2022-10-31T06:20:55.681Z,11.03
2022-10-31T06:25:00.780Z,8.97
2022-10-31T06:29:04.695Z,13.20
2022-10-31T06:33:08.437Z,11.80
2022-10-31T06:37:13.701Z,12.00
2022-10-31T06:41:18.463Z,15.40
2022-10-31T06:45:22.054Z,11.00
2022-10-31T06:49:25.960Z,16.40
2022-10-31T06:53:30.769Z,14.60
2022-10-31T06:57:35.588Z,14.27
2022-10-31T07:01:39.157Z,12.60
2022-10-31T07:05:42.825Z,14.13
2022-10-31T07:09:46.177Z,14.73
2022-10-31T07:13:51.020Z,17.73
2022-10-31T07:17:54.446Z,21.17
2022-10-31T07:21:59.093Z,16.70
2022-10-31T07:26:02.593Z,16.73
2022-10-31T07:30:10.552Z,15.03
2022-10-31T07:34:14.068Z,18.20
2022-10-31T07:38:17.988Z,27.30
2022-10-31T07:42:21.455Z,16.03
2022-10-31T07:46:26.474Z,17.67
2022-10-31T07:50:32.281Z,18.10
2022-10-31T07:54:35.934Z,15.73
2022-10-31T07:58:39.824Z,16.37
2022-10-31T08:02:44.968Z,16.93
2022-10-31T08:06:49.459Z,18.47
2022-10-31T08:10:52.780Z,19.63
2022-10-31T08:14:57.439Z,16.83
2022-10-31T08:19:04.403Z,17.80
2022-10-31T08:23:08.102Z,15.43
2022-10-31T08:27:11.339Z,13.67
2022-10-31T08:31:14.713Z,19.37
2022-10-31T08:35:19.500Z,21.33
2022-10-31T08:39:26.919Z,16.17
2022-10-31T08:43:30.268Z,17.30
2022-10-31T08:47:33.664Z,23.97
2022-10-31T08:51:38.494Z,32.87
2022-10-31T08:55:44.326Z,25.17
2022-10-31T08:59:47.791Z,19.77
2022-10-31T09:03:51.079Z,20.30
2022-10-31T09:07:58.098Z,15.70
2022-10-31T09:12:01.795Z,16.80
2022-10-31T09:16:05.361Z,14.40
2022-10-31T09:20:09.367Z,13.20
2022-10-31T09:24:14.637Z,12.63
2022-10-31T09:28:20.963Z,11.93
2022-10-31T09:32:24.443Z,9.53
2022-10-31T09:36:29.472Z,7.40
2022-10-31T09:40:37.144Z,12.40
2022-10-31T09:44:54.017Z,16.33
2022-10-31T09:49:25.503Z,6.47
2022-10-31T09:53:37.264Z,12.03
2022-10-31T09:57:44.057Z,6.70
2022-10-31T10:01:52.037Z,12.73
2022-10-31T10:05:59.762Z,11.87
2022-10-31T10:10:13.134Z,8.47
2022-10-31T10:14:33.969Z,7.63
2022-10-31T10:18:50.427Z,9.73
2022-10-31T10:23:02.682Z,9.27
2022-10-31T10:27:18.007Z,18.23
2022-10-31T10:31:29.748Z,12.10
2022-10-31T10:35:36.370Z,9.93
2022-10-31T10:39:44.372Z,10.43
2022-10-31T10:48:01.829Z,11.97
2022-10-31T10:52:35.296Z,9.37
2022-10-31T10:56:47.523Z,10.67
2022-10-31T11:00:51.644Z,7.80
2022-10-31T11:04:59.137Z,6.80
2022-10-31T11:09:11.299Z,6.33
2022-10-31T11:13:24.712Z,9.70
2022-10-31T11:17:33.218Z,9.70
2022-10-31T11:21:38.082Z,12.57
2022-10-31T11:25:41.415Z,12.60
2022-10-31T11:29:44.944Z,10.50
2022-10-31T11:33:52.884Z,8.87
2022-10-31T11:38:01.599Z,11.77
2022-10-31T11:42:08.897Z,8.83
2022-10-31T11:46:14.620Z,9.53
2022-10-31T11:50:23.520Z,8.20
2022-10-31T11:54:31.313Z,10.07
2022-10-31T11:58:34.979Z,7.07
2022-10-31T12:02:38.380Z,8.40
2022-10-31T12:06:43.247Z,9.40
2022-10-31T12:11:00.248Z,6.87
2022-10-31T12:15:18.061Z,10.77
2022-10-31T12:19:32.845Z,10.30
2022-10-31T12:23:45.049Z,6.10
2022-10-31T12:28:13.882Z,7.70
2022-10-31T12:32:39.570Z,7.87
2022-10-31T12:36:52.432Z,5.33
2022-10-31T12:41:17.016Z,6.10
2022-10-31T12:45:38.693Z,6.17
2022-10-31T12:49:49.814Z,7.00
2022-10-31T12:54:07.864Z,5.70
2022-10-31T12:58:17.185Z,6.03
2022-10-31T13:02:25.464Z,6.47
2022-10-31T13:06:34.479Z,6.77
2022-10-31T13:10:44.465Z,12.93
2022-10-31T13:14:51.511Z,13.13
2022-10-31T13:19:00.255Z,8.27
2022-10-31T13:23:29.996Z,7.20
2022-10-31T13:27:47.214Z,24.53
2022-10-31T13:31:50.617Z,7.17
2022-10-31T13:36:04.939Z,6.80
2022-10-31T13:40:17.073Z,7.30
2022-10-31T13:44:25.113Z,12.27
2022-10-31T13:48:44.256Z,8.30
2022-10-31T13:52:49.093Z,12.33
2022-10-31T13:56:53.942Z,10.00
2022-10-31T14:01:15.796Z,12.50
2022-10-31T14:05:26.090Z,7.83
2022-10-31T14:09:34.033Z,10.90
2022-10-31T14:13:42.415Z,16.57
2022-10-31T14:17:50.065Z,7.57
2022-10-31T14:21:53.479Z,7.03
2022-10-31T14:26:10.101Z,9.83
2022-10-31T14:30:18.441Z,9.57
2022-10-31T14:34:25.810Z,6.23
2022-10-31T14:38:45.744Z,8.83
2022-10-31T14:43:14.525Z,6.80
2022-10-31T14:47:29.932Z,14.33
2022-10-31T14:51:38.954Z,12.03
2022-10-31T14:55:49.023Z,7.87
2022-10-31T15:00:00.794Z,9.23
2022-10-31T15:04:26.874Z,9.53
2022-10-31T15:08:40.142Z,9.47
2022-10-31T15:12:43.424Z,7.03
2022-10-31T15:16:48.133Z,6.97
2022-10-31T15:20:53.600Z,8.60
2022-10-31T15:24:58.316Z,9.83
2022-10-31T15:29:03.412Z,8.30
2022-10-31T15:34:07.467Z,9.03
2022-10-31T15:38:12.156Z,11.17
2022-10-31T15:42:28.064Z,7.30
2022-10-31T15:46:31.984Z,9.93
2022-10-31T15:50:40.578Z,7.73
2022-10-31T15:54:50.943Z,9.47
2022-10-31T15:58:55.782Z,9.80
2022-10-31T16:03:09.525Z,7.80
2022-10-31T16:07:22.953Z,9.33
2022-10-31T16:11:35.493Z,8.80
2022-10-31T16:15:38.918Z,11.90
2022-10-31T16:19:51.682Z,8.07
2022-10-31T16:24:03.782Z,9.07
2022-10-31T16:28:18.392Z,11.30
2022-10-31T16:32:34.352Z,11.33
2022-10-31T16:36:39.649Z,12.23
2022-10-31T16:40:43.626Z,10.73
2022-10-31T16:44:50.165Z,10.10
2022-10-31T16:48:54.148Z,11.93
2022-10-31T16:53:14.521Z,11.77
2022-10-31T16:57:21.138Z,21.33
2022-10-31T17:01:26.423Z,18.27
2022-10-31T17:05:30.505Z,13.43
2022-10-31T17:09:33.908Z,11.50
2022-10-31T17:13:37.659Z,15.83
2022-10-31T17:17:42.555Z,12.93
2022-10-31T17:22:26.987Z,13.67
2022-10-31T17:27:09.161Z,12.10
2022-10-31T17:37:01.652Z,12.00
2022-10-31T17:51:08.660Z,16.20
2022-10-31T17:55:15.201Z,15.50
2022-10-31T18:00:37.150Z,18.33
2022-10-31T18:04:41.580Z,19.57
2022-10-31T18:09:21.177Z,15.57
2022-10-31T18:13:52.689Z,16.23
2022-10-31T18:18:36.564Z,19.10
2022-10-31T18:23:27.306Z,16.60
2022-10-31T18:28:03.386Z,13.50
2022-10-31T18:32:48.178Z,13.43
2022-10-31T18:37:24.165Z,14.40
2022-10-31T18:41:50.773Z,14.67
2022-10-31T18:46:31.809Z,15.17
2022-10-31T18:51:06.366Z,15.17
2022-10-31T18:57:14.064Z,15.73
2022-10-31T19:00:41.605Z,16.03
2022-10-31T19:05:05.010Z,14.90
2022-10-31T19:09:38.883Z,16.50
2022-10-31T19:18:28.609Z,14.27
2022-10-31T19:22:43.665Z,16.47
2022-10-31T19:27:06.458Z,15.67
2022-10-31T19:31:21.521Z,15.57
2022-10-31T19:36:40.116Z,15.03
2022-10-31T19:41:18.012Z,26.70
2022-10-31T19:45:49.795Z,18.60
2022-10-31T20:00:02.550Z,18.80
2022-10-31T20:04:32.923Z,18.57
2022-10-31T20:17:35.541Z,30.27
2022-10-31T20:22:06.050Z,34.83
2022-10-31T20:26:34.450Z,31.00
2022-10-31T20:31:46.379Z,38.70
2022-10-31T20:37:13.958Z,36.77
2022-10-31T20:45:16.138Z,54.13
2022-10-31T20:49:48.002Z,39.93
2022-10-31T20:54:19.662Z,25.67
2022-10-31T20:59:51.161Z,46.57
2022-10-31T21:03:39.660Z,29.77
2022-10-31T21:12:36.644Z,23.73
2022-10-31T21:17:19.804Z,27.50
2022-10-31T21:27:26.970Z,31.23
2022-10-31T21:31:51.430Z,59.53
2022-10-31T21:35:57.776Z,37.30
2022-10-31T21:40:39.923Z,30.43
2022-10-31T21:45:24.032Z,32.00
2022-10-31T21:50:40.741Z,25.33
2022-10-31T21:55:20.378Z,26.07
2022-10-31T21:59:25.131Z,50.67
2022-10-31T22:04:09.765Z,71.33
2022-10-31T22:08:14.693Z,65.43
2022-10-31T22:12:28.868Z,26.40
2022-10-31T22:16:49.074Z,63.40
2022-10-31T22:21:20.712Z,32.33
2022-10-31T22:25:42.685Z,22.67
2022-10-31T22:29:58.058Z,36.43
2022-10-31T22:34:04.551Z,40.63
2022-10-31T22:38:33.422Z,63.30
2022-10-31T22:42:53.130Z,37.23
2022-10-31T22:47:06.481Z,35.20
2022-10-31T22:51:29.021Z,27.33
2022-10-31T22:56:32.782Z,26.90
2022-10-31T23:00:33.059Z,31.30
2022-10-31T23:14:11.003Z,23.50
2022-10-31T23:19:11.692Z,29.40
2022-10-31T23:23:33.584Z,25.33
2022-10-31T23:27:49.963Z,31.30
2022-10-31T23:32:06.123Z,31.07
2022-10-31T23:36:44.963Z,58.10
2022-10-31T23:40:58.419Z,55.33
2022-10-31T23:45:25.592Z,68.40
2022-10-31T23:49:55.914Z,32.43
2022-10-31T23:54:18.033Z,27.10
2022-10-31T23:58:31.452Z,52.27
